Flight Track Log - Related Links

Times and Time Zones

All times are in EDT time to prevent confusion due to time zone crossing. See the N385C flight status page for this flight to view local times or setup timezone preferences in your user account.

Time Position Orientation Groundspeed Altitude Reporting Facility
EDT Latitude Longitude Course Direction KTS MPH feet Rate Location/Type
Tue 04:13:10 PM 40.3444 -82.0417 289° West 120 138 5,600  Level Cleveland Center
Tue 04:14:12 PM 40.3564 -82.0883 289° West 127 146 6,000 214 Climbing Cleveland Center
Tue 04:15:02 PM 40.3683 -82.1372 288° West 149 171 6,000  Level Indianapolis Center
Tue 04:15:20 PM 40.3708 -82.1461 290° West 137 158 6,000 100 Level Indianapolis Center
Tue 04:16:02 PM 40.3825 -82.1914 289° West 157 181 6,100  Climbing Indianapolis Center
Tue 04:16:22 PM 40.3844 -82.2042 281° West 154 177 6,000 -98 Descending Indianapolis Center
Tue 04:17:03 PM 40.3947 -82.2453 288° West 159 183 6,000  Level Indianapolis Center
Tue 04:17:25 PM 40.3986 -82.2581 292° West 159 183 6,000  Level Indianapolis Center
Tue 04:18:04 PM 40.4106 -82.3028 289° West 161 185 6,000  Level Indianapolis Center
Tue 04:18:27 PM 40.4136 -82.3128 292° West 159 183 6,000  Level Indianapolis Center
Tue 04:18:51 PM 40.4208 -82.3422 288° West 159 183 6,000  Level Indianapolis Center
Tue 04:19:53 PM 40.4336 -82.3978 287° West 159 183 6,000  Level Indianapolis Center
Tue 04:20:56 PM 40.4486 -82.4533 290° West 159 183 6,000  Level Indianapolis Center
Tue 04:21:57 PM 40.4619 -82.5117 287° West 160 184 6,000  Level Indianapolis Center
Tue 04:23:00 PM 40.4753 -82.5681 287° West 160 184 6,000  Level Indianapolis Center
Tue 04:24:02 PM 40.4919 -82.6344 288° West 160 184 6,000  Level Indianapolis Center
Tue 04:25:04 PM 40.5061 -82.6922 288° West 161 185 6,000  Level Indianapolis Center
Tue 04:26:06 PM 40.5194 -82.7503 287° West 161 185 6,000 48 Level Indianapolis Center
Tue 04:27:08 PM 40.5339 -82.8064 289° West 161 185 6,100  Climbing Indianapolis Center
Tue 04:28:10 PM 40.5472 -82.8644 287° West 162 186 6,000 -48 Descending Indianapolis Center
Tue 04:29:12 PM 40.5614 -82.9214 288° West 162 186 6,000  Level Indianapolis Center
Tue 04:30:14 PM 40.5747 -82.9792 287° West 162 186 6,000  Level Indianapolis Center
Tue 04:31:17 PM 40.5903 -83.0469 287° West 162 186 6,000  Level Indianapolis Center
Tue 04:32:18 PM 40.6050 -83.1039 289° West 163 188 6,000  Level Indianapolis Center
Tue 04:33:21 PM 40.6186 -83.1622 287° West 163 188 6,000  Level Indianapolis Center
Tue 04:34:23 PM 40.6333 -83.2231 288° West 163 188 6,000  Level Indianapolis Center
Tue 04:35:25 PM 40.6464 -83.2797 287° West 163 188 6,000  Level Indianapolis Center
Tue 04:36:27 PM 40.6597 -83.3364 287° West 163 188 6,000  Level Indianapolis Center
Tue 04:37:29 PM 40.6744 -83.3936 289° West 163 188 6,000  Level Indianapolis Center
Tue 04:38:31 PM 40.6875 -83.4517 287° West 164 189 6,000  Level Indianapolis Center
Tue 04:39:33 PM 40.7003 -83.5094 286° West 164 189 6,000  Level Indianapolis Center
Tue 04:40:35 PM 40.7164 -83.5772 287° West 164 189 6,000  Level Indianapolis Center
Tue 04:41:37 PM 40.7297 -83.6336 287° West 163 188 6,000  Level Indianapolis Center
Tue 04:42:40 PM 40.7422 -83.6894 286° West 163 188 6,000  Level Indianapolis Center
Tue 04:43:42 PM 40.7553 -83.7450 287° West 162 186 6,000  Level Indianapolis Center
Tue 04:44:44 PM 40.7683 -83.8031 287° West 163 188 6,000  Level Indianapolis Center
Tue 04:45:46 PM 40.7833 -83.8611 289° West 162 186 6,000  Level Indianapolis Center
Tue 04:46:48 PM 40.7983 -83.9303 286° West 162 186 6,000  Level Indianapolis Center
Tue 04:47:50 PM 40.8094 -83.9847 285° West 162 186 6,000  Level Indianapolis Center
Tue 04:48:52 PM 40.8244 -84.0469 288° West 163 188 6,000  Level Indianapolis Center
Tue 04:49:54 PM 40.8364 -84.0967 288° West 163 188 6,000  Level Indianapolis Center
Tue 04:50:56 PM 40.8489 -84.1539 286° West 163 188 6,000  Level Indianapolis Center
Tue 04:51:59 PM 40.8642 -84.2214 287° West 163 188 6,000  Level Indianapolis Center
Tue 04:53:03 PM 40.8794 -84.2825 288° West 162 186 6,000  Level Chicago Center
Tue 04:54:05 PM 40.8933 -84.3403 288° West 164 189 6,000  Level Chicago Center
Tue 04:55:07 PM 40.9069 -84.3986 287° West 165 190 6,000  Level Chicago Center
Tue 04:56:09 PM 40.9186 -84.4578 285° West 166 191 6,000  Level Chicago Center
Tue 04:57:11 PM 40.9317 -84.5153 287° West 165 190 6,000  Level Chicago Center
Tue 04:58:13 PM 40.9442 -84.5728 286° West 164 189 6,000  Level Chicago Center
Tue 04:59:15 PM 40.9594 -84.6408 287° West 162 186 6,000  Level Chicago Center
Tue 05:00:17 PM 40.9722 -84.6975 287° West 162 186 6,000  Level Chicago Center
Tue 05:01:19 PM 40.9853 -84.7556 287° West 163 188 6,000 48 Level Chicago Center
Tue 05:02:22 PM 40.9975 -84.8114 286° West 161 185 6,100 48 Climbing Chicago Center
Tue 05:03:24 PM 41.0100 -84.8678 286° West 161 185 6,100  Level Chicago Center
Tue 05:04:26 PM 41.0225 -84.9233 287° West 159 183 6,100  Level Chicago Center
Tue 05:05:28 PM 41.0361 -84.9911 285° West 159 183 6,100  Level Chicago Center
Tue 05:06:30 PM 41.0494 -85.0475 287° West 160 184 6,100  Level Chicago Center
Tue 05:07:32 PM 41.0617 -85.1069 285° West 163 188 6,100  Level Chicago Center
Tue 05:08:34 PM 41.0744 -85.1647 286° West 163 188 6,100  Level Chicago Center
Tue 05:09:36 PM 41.0867 -85.2236 285° West 164 189 6,100  Level Chicago Center
Tue 05:10:38 PM 41.0992 -85.2806 286° West 163 188 6,100  Level Chicago Center
Tue 05:11:40 PM 41.1144 -85.3514 286° West 164 189 6,100  Level Chicago Center
Tue 05:12:43 PM 41.1272 -85.4114 286° West 166 191 6,100  Level Chicago Center
Tue 05:13:45 PM 41.1389 -85.4717 284° West 167 192 6,100  Level Chicago Center
Tue 05:14:47 PM 41.1525 -85.5314 287° West 169 194 6,100  Level Chicago Center
Tue 05:15:49 PM 41.1661 -85.5908 287° West 169 194 6,100  Level Chicago Center
Tue 05:16:51 PM 41.1775 -85.6503 284° West 167 192 6,100  Level Chicago Center
Tue 05:17:53 PM 41.1925 -85.7211 286° West 167 192 6,100  Level Chicago Center
Tue 05:18:55 PM 41.2047 -85.7811 285° West 167 192 6,100  Level Chicago Center
Tue 05:19:57 PM 41.2181 -85.8403 287° West 167 192 6,100  Level Chicago Center
Tue 05:20:59 PM 41.2319 -85.9056 286° West 168 193 6,100 -48 Level Chicago Center
Tue 05:22:01 PM 41.2417 -85.9592 284° West 167 192 6,000  Descending Chicago Center
Tue 05:23:03 PM 41.2556 -86.0194 287° West 167 192 6,100 48 Climbing Chicago Center
Tue 05:24:05 PM 41.2669 -86.0792 284° West 168 193 6,100  Level Chicago Center
Tue 05:25:08 PM 41.2831 -86.1514 287° West 169 194 6,100  Level Chicago Center
Tue 05:26:10 PM 41.2942 -86.2119 284° West 168 193 6,100  Level Chicago Center
Tue 05:27:12 PM 41.3078 -86.2725 287° West 170 196 6,100  Level Chicago Center
Tue 05:28:14 PM 41.3192 -86.3331 284° West 170 196 6,100  Level Chicago Center
Tue 05:29:16 PM 41.3319 -86.3933 286° West 170 196 6,100  Level Chicago Center
Tue 05:30:18 PM 41.3436 -86.4553 284° West 171 197 6,100  Level Chicago Center
Tue 05:31:20 PM 41.3581 -86.5281 285° West 171 197 6,100  Level Chicago Center
Tue 05:32:22 PM 41.3697 -86.5892 284° West 170 196 6,100  Level Chicago Center
Tue 05:33:24 PM 41.3831 -86.6489 287° West 170 196 6,100  Level Chicago Center
Tue 05:34:26 PM 41.3975 -86.7169 286° West 170 196 6,100  Level Chicago Center
Tue 05:35:28 PM 41.4111 -86.7775 287° West 170 196 6,100  Level Chicago Center
Tue 05:36:30 PM 41.4231 -86.8439 284° West 172 198 6,100  Level Chicago Center

Login

Don't have an account? Register now (free) for customized features, flight alerts, and more!